Terminal Aerodrome Forecast
Issued by NWS

Home | Current Version | Previous Version | Text Only | Print | Product List | Glossary On
Versions: 1 2 3 4 5 6 7 8 9 10 11 12 13
000
FTUS46 KSEW 250532
TAFBLI
TAF
KBLI 250532Z 2506/2606 16006KT P6SM SCT045
     FM251300 16009KT P6SM SCT025 BKN045
      TEMPO 2513/2517 BKN025 BKN045
     FM251800 16012KT P6SM BKN045 BKN120
     FM260100 16012G22KT P6SM -RA OVC040=

USA.gov is the U.S. government's official web portal to all federal, state and local government web resources and services.